createdAt,value
2022-11-29T00:01:07.075Z,95.50
2022-11-29T00:03:34.988Z,95.30
2022-11-29T00:06:11.489Z,95.40
2022-11-29T00:08:39.719Z,95.70
2022-11-29T00:11:41.426Z,95.70
2022-11-29T00:14:11.521Z,95.60
2022-11-29T00:16:41.320Z,96.00
2022-11-29T00:19:10.314Z,96.00
2022-11-29T00:21:38.149Z,96.00
2022-11-29T00:24:05.824Z,95.90
2022-11-29T00:26:33.277Z,95.90
2022-11-29T00:29:00.713Z,96.00
2022-11-29T00:31:30.792Z,95.90
2022-11-29T00:34:00.652Z,95.90
2022-11-29T00:36:28.786Z,95.90
2022-11-29T00:38:56.373Z,96.10
2022-11-29T00:41:23.790Z,96.20
2022-11-29T00:43:51.253Z,96.00
2022-11-29T00:46:19.060Z,96.00
2022-11-29T00:48:46.587Z,96.00
2022-11-29T00:51:14.337Z,95.80
2022-11-29T00:53:41.705Z,96.00
2022-11-29T00:56:09.432Z,96.00
2022-11-29T00:58:37.826Z,96.00
2022-11-29T01:01:05.512Z,95.90
2022-11-29T01:03:33.062Z,95.80
2022-11-29T01:06:09.303Z,95.80
2022-11-29T01:08:37.541Z,95.90
2022-11-29T01:11:12.370Z,95.90
2022-11-29T01:13:40.817Z,95.70
2022-11-29T01:16:08.661Z,95.80
2022-11-29T01:18:36.997Z,95.70
2022-11-29T01:21:06.429Z,95.90
2022-11-29T01:23:35.140Z,95.80
2022-11-29T01:26:10.935Z,95.70
2022-11-29T01:28:39.328Z,95.60
2022-11-29T01:31:33.853Z,95.50
2022-11-29T01:34:03.663Z,95.80
2022-11-29T01:36:31.681Z,95.80
2022-11-29T01:39:04.171Z,96.00
2022-11-29T01:41:34.000Z,95.90
2022-11-29T01:44:12.247Z,95.90
2022-11-29T01:46:42.284Z,96.00
2022-11-29T01:49:17.739Z,96.10
2022-11-29T01:51:55.015Z,95.80
2022-11-29T01:54:22.851Z,95.90
2022-11-29T01:56:52.368Z,95.70
2022-11-29T01:59:23.824Z,95.60
2022-11-29T02:01:52.263Z,95.80
2022-11-29T02:04:20.653Z,95.70
2022-11-29T02:06:48.187Z,95.90
2022-11-29T02:09:23.647Z,95.90
2022-11-29T02:12:17.555Z,96.00
2022-11-29T02:15:17.834Z,96.00
2022-11-29T02:18:05.522Z,95.90
2022-11-29T02:20:51.653Z,95.90
2022-11-29T02:24:07.851Z,96.10
2022-11-29T02:26:44.047Z,95.50
2022-11-29T02:29:52.612Z,95.60
2022-11-29T02:32:51.112Z,95.40
2022-11-29T02:35:35.740Z,95.90
2022-11-29T02:38:22.318Z,95.10
2022-11-29T02:41:12.761Z,95.00
2022-11-29T02:44:21.012Z,94.80
2022-11-29T02:47:15.833Z,94.70
2022-11-29T02:49:52.824Z,94.60
2022-11-29T02:52:55.441Z,94.30
2022-11-29T02:55:41.008Z,94.40
2022-11-29T02:58:32.199Z,94.50
2022-11-29T03:01:32.413Z,94.20
2022-11-29T03:04:11.507Z,94.20
2022-11-29T03:07:13.833Z,94.20
2022-11-29T03:09:49.625Z,94.20
2022-11-29T03:12:40.998Z,93.90
2022-11-29T03:15:42.692Z,93.80
2022-11-29T03:18:28.373Z,93.90
2022-11-29T03:21:08.731Z,93.80
2022-11-29T03:23:48.514Z,93.50
2022-11-29T03:26:24.209Z,93.50
2022-11-29T03:29:07.459Z,93.50
2022-11-29T03:31:36.478Z,93.60
2022-11-29T03:34:25.648Z,93.70
2022-11-29T03:36:57.024Z,93.30
2022-11-29T03:39:45.710Z,93.00
2022-11-29T03:42:26.645Z,93.10
2022-11-29T03:45:02.072Z,93.20
2022-11-29T03:47:43.061Z,93.10
2022-11-29T03:50:35.990Z,93.20
2022-11-29T03:53:23.611Z,92.90
2022-11-29T03:55:59.060Z,92.70
2022-11-29T03:58:51.728Z,92.50
2022-11-29T04:01:22.013Z,92.60
2022-11-29T04:04:10.338Z,92.50
2022-11-29T04:07:08.394Z,92.90
2022-11-29T04:09:56.924Z,92.60
2022-11-29T04:12:42.199Z,92.10
2022-11-29T04:15:32.612Z,92.10
2022-11-29T04:18:21.149Z,91.80
2022-11-29T04:20:55.977Z,91.80
2022-11-29T04:23:35.267Z,92.10
2022-11-29T04:26:35.094Z,91.90
2022-11-29T04:29:16.478Z,92.00
2022-11-29T04:32:21.391Z,91.80
2022-11-29T04:35:06.944Z,91.80
2022-11-29T04:37:43.294Z,91.90
2022-11-29T04:40:13.414Z,91.80
2022-11-29T04:43:08.921Z,92.30
2022-11-29T04:46:03.931Z,91.70
2022-11-29T04:48:52.525Z,92.10
2022-11-29T04:51:39.992Z,92.30
2022-11-29T04:54:13.299Z,92.80
2022-11-29T04:56:54.519Z,92.70
2022-11-29T04:59:49.007Z,92.80
2022-11-29T05:02:51.621Z,92.70
2022-11-29T05:05:36.914Z,92.80
2022-11-29T05:08:20.024Z,92.90
2022-11-29T05:11:11.274Z,92.90
2022-11-29T05:14:02.813Z,92.80
2022-11-29T05:16:54.683Z,92.70
2022-11-29T05:19:57.612Z,92.80
2022-11-29T05:22:33.117Z,92.70
2022-11-29T05:25:18.658Z,92.70
2022-11-29T05:28:09.812Z,92.10
2022-11-29T05:31:03.741Z,92.20
2022-11-29T05:34:03.800Z,91.70
2022-11-29T05:36:44.219Z,91.80
2022-11-29T05:40:04.786Z,91.30
2022-11-29T05:43:03.714Z,91.00
2022-11-29T05:45:52.836Z,90.80
2022-11-29T05:48:31.966Z,90.40
2022-11-29T05:51:08.413Z,90.30
2022-11-29T05:53:54.051Z,90.30
2022-11-29T05:56:45.911Z,90.20
2022-11-29T05:59:29.003Z,90.20
2022-11-29T06:02:07.358Z,90.80
2022-11-29T06:05:13.478Z,90.20
2022-11-29T06:08:03.910Z,91.70
2022-11-29T06:10:42.075Z,91.80
2022-11-29T06:13:15.529Z,89.90
2022-11-29T06:16:05.155Z,89.90
2022-11-29T06:18:49.959Z,90.20
2022-11-29T06:21:40.470Z,90.10
2022-11-29T06:24:25.952Z,90.40
2022-11-29T06:27:04.970Z,90.60
2022-11-29T06:30:13.221Z,91.10
2022-11-29T06:33:19.624Z,91.00
2022-11-29T06:36:20.815Z,91.30
2022-11-29T06:38:48.625Z,91.20
2022-11-29T06:41:22.606Z,91.40
2022-11-29T06:43:51.353Z,91.40
2022-11-29T06:46:35.540Z,91.70
2022-11-29T06:49:05.877Z,91.70
2022-11-29T06:51:52.659Z,91.90
2022-11-29T06:54:38.788Z,92.00
2022-11-29T06:57:25.133Z,92.20
2022-11-29T07:00:12.094Z,92.40
2022-11-29T07:02:57.535Z,92.50
2022-11-29T07:05:33.080Z,92.10
2022-11-29T07:08:31.071Z,92.30
2022-11-29T07:11:00.039Z,92.20
2022-11-29T07:13:27.606Z,92.00
2022-11-29T07:16:20.307Z,92.20
2022-11-29T07:19:18.759Z,91.90
2022-11-29T07:21:55.429Z,92.20
2022-11-29T07:24:42.709Z,92.10
2022-11-29T07:27:10.205Z,92.30
2022-11-29T07:29:43.168Z,92.60
2022-11-29T07:32:37.613Z,92.50
2022-11-29T07:35:14.159Z,93.20
2022-11-29T07:38:09.184Z,93.10
2022-11-29T07:41:00.918Z,93.00
2022-11-29T07:43:57.262Z,93.00
2022-11-29T07:46:25.808Z,93.60
2022-11-29T07:48:53.177Z,93.10
2022-11-29T07:51:20.719Z,92.90
2022-11-29T07:53:48.515Z,93.00
2022-11-29T07:56:16.689Z,92.70
2022-11-29T07:58:44.265Z,92.70
2022-11-29T08:01:11.862Z,92.80
2022-11-29T08:03:41.275Z,91.80
2022-11-29T08:06:08.812Z,91.50
2022-11-29T08:08:42.272Z,90.80
2022-11-29T08:11:13.340Z,91.10
2022-11-29T08:13:40.770Z,91.40
2022-11-29T08:16:09.039Z,90.90
2022-11-29T08:18:39.343Z,91.10
2022-11-29T08:21:07.765Z,90.90
2022-11-29T08:23:35.131Z,90.40
2022-11-29T08:26:03.857Z,89.80
2022-11-29T08:28:31.103Z,90.00
2022-11-29T08:31:06.936Z,90.30
2022-11-29T08:33:40.008Z,90.00
2022-11-29T08:36:12.899Z,89.80
2022-11-29T08:38:40.474Z,89.90
2022-11-29T08:41:10.057Z,89.70
2022-11-29T08:43:37.616Z,89.80
2022-11-29T08:46:05.531Z,89.70
2022-11-29T08:48:33.163Z,89.50
2022-11-29T08:51:00.574Z,89.40
2022-11-29T08:53:43.885Z,89.60
2022-11-29T08:59:07.579Z,89.30
2022-11-29T09:01:35.119Z,89.20
2022-11-29T09:04:07.459Z,89.50
2022-11-29T09:06:39.854Z,89.40
2022-11-29T09:09:07.994Z,89.20
2022-11-29T09:11:36.666Z,89.40
2022-11-29T09:14:07.352Z,89.00
2022-11-29T09:16:37.660Z,89.50
2022-11-29T09:19:05.852Z,89.50
2022-11-29T09:21:35.236Z,89.10
2022-11-29T09:24:06.726Z,89.20
2022-11-29T09:26:36.406Z,88.90
2022-11-29T09:29:05.845Z,89.00
2022-11-29T09:31:34.008Z,88.90
2022-11-29T09:34:01.438Z,89.10
2022-11-29T09:36:31.013Z,89.30
2022-11-29T09:39:02.875Z,89.00
2022-11-29T09:42:05.542Z,89.40
2022-11-29T09:44:50.421Z,88.90
2022-11-29T09:47:33.242Z,90.60
2022-11-29T09:50:22.601Z,88.30
2022-11-29T09:53:21.272Z,88.40
2022-11-29T09:56:09.169Z,88.80
2022-11-29T09:59:01.575Z,89.00
2022-11-29T10:01:46.652Z,88.90
2022-11-29T10:04:24.548Z,89.00
2022-11-29T10:07:09.293Z,89.00
2022-11-29T10:09:56.535Z,88.90
2022-11-29T10:12:50.033Z,88.90
2022-11-29T10:15:29.825Z,89.30
2022-11-29T10:18:14.175Z,89.30
2022-11-29T10:20:48.985Z,89.30
2022-11-29T10:23:29.731Z,89.30
2022-11-29T10:25:58.695Z,89.30
2022-11-29T10:28:32.949Z,89.40
2022-11-29T10:31:16.852Z,89.50
2022-11-29T10:33:45.592Z,89.50
2022-11-29T10:36:19.929Z,89.40
2022-11-29T10:38:49.148Z,89.40
2022-11-29T10:41:22.791Z,89.40
2022-11-29T10:43:52.369Z,89.50
2022-11-29T10:46:32.759Z,89.60
2022-11-29T10:49:03.183Z,89.80
2022-11-29T10:51:32.172Z,89.50
2022-11-29T10:54:37.614Z,89.50
2022-11-29T10:57:15.512Z,90.20
2022-11-29T10:59:43.074Z,98.40
2022-11-29T11:02:21.389Z,90.20
2022-11-29T11:04:50.449Z,87.90
2022-11-29T11:07:36.349Z,88.20
2022-11-29T11:10:23.443Z,88.20
2022-11-29T11:13:20.560Z,88.80
2022-11-29T11:15:48.339Z,89.20
2022-11-29T11:18:24.643Z,89.40
2022-11-29T11:20:58.837Z,90.00
2022-11-29T11:23:27.753Z,90.30
2022-11-29T11:26:08.419Z,90.30
2022-11-29T11:29:02.819Z,90.20
2022-11-29T11:31:36.197Z,90.10
2022-11-29T11:34:30.003Z,90.00
2022-11-29T11:37:15.739Z,90.10
2022-11-29T11:39:44.296Z,90.20
2022-11-29T11:42:38.846Z,90.00
2022-11-29T11:45:12.254Z,90.20
2022-11-29T11:47:52.474Z,90.20
2022-11-29T11:50:53.210Z,90.10
2022-11-29T11:53:36.860Z,90.10
2022-11-29T11:56:10.696Z,90.10
2022-11-29T11:58:53.753Z,90.00
2022-11-29T12:01:30.610Z,90.20
2022-11-29T12:04:25.773Z,90.30
2022-11-29T12:06:54.559Z,90.50
2022-11-29T12:09:46.049Z,90.50
2022-11-29T12:12:19.244Z,90.80
2022-11-29T12:14:56.967Z,90.60
2022-11-29T12:17:39.757Z,91.10
2022-11-29T12:20:28.657Z,91.00
2022-11-29T12:23:27.605Z,91.50
2022-11-29T12:26:55.190Z,91.40
2022-11-29T12:29:19.463Z,91.40
2022-11-29T12:32:12.681Z,91.60
2022-11-29T12:35:00.837Z,91.50
2022-11-29T12:37:56.196Z,91.60
2022-11-29T12:40:38.894Z,91.80
2022-11-29T12:43:32.335Z,91.90
2022-11-29T12:46:12.315Z,91.60
2022-11-29T12:49:00.239Z,91.40
2022-11-29T12:51:47.163Z,91.60
2022-11-29T12:54:28.607Z,91.90
2022-11-29T12:57:06.649Z,91.80
2022-11-29T12:59:45.690Z,91.70
2022-11-29T13:02:34.988Z,91.80
2022-11-29T13:05:26.381Z,92.00
2022-11-29T13:08:16.451Z,91.80
2022-11-29T13:10:56.092Z,92.00
2022-11-29T13:13:49.287Z,92.10
2022-11-29T13:16:38.531Z,92.10
2022-11-29T13:19:11.168Z,92.10
2022-11-29T13:21:47.516Z,92.60
2022-11-29T13:24:38.361Z,92.40
2022-11-29T13:27:16.479Z,92.40
2022-11-29T13:29:44.135Z,92.50
2022-11-29T13:32:30.557Z,92.60
2022-11-29T13:35:21.842Z,93.00
2022-11-29T13:38:20.099Z,93.30
2022-11-29T13:41:05.731Z,93.30
2022-11-29T13:43:45.003Z,93.30
2022-11-29T13:46:20.141Z,93.40
2022-11-29T13:48:53.773Z,93.60
2022-11-29T13:51:37.805Z,93.90
2022-11-29T13:54:34.906Z,93.90
2022-11-29T13:57:10.458Z,93.90
2022-11-29T13:59:44.265Z,93.90
2022-11-29T14:02:30.664Z,94.00
2022-11-29T14:04:58.694Z,94.00
2022-11-29T14:07:26.332Z,94.10
2022-11-29T14:10:05.124Z,94.20
2022-11-29T14:12:37.037Z,94.30
2022-11-29T14:15:24.643Z,94.90
2022-11-29T14:18:02.939Z,94.60
2022-11-29T14:20:30.396Z,94.60
2022-11-29T14:23:09.450Z,94.80
2022-11-29T14:25:52.778Z,95.00
2022-11-29T14:28:23.419Z,94.80
2022-11-29T14:30:58.606Z,95.10
2022-11-29T14:33:47.882Z,95.00
2022-11-29T14:36:15.397Z,95.20
2022-11-29T14:39:05.946Z,94.80
2022-11-29T14:41:55.026Z,95.10
2022-11-29T14:44:54.727Z,95.00
2022-11-29T14:47:30.160Z,95.20
2022-11-29T14:50:00.331Z,95.00
2022-11-29T14:52:39.293Z,95.10
2022-11-29T14:55:29.321Z,95.10
2022-11-29T14:58:04.006Z,95.20
2022-11-29T15:00:44.187Z,95.20
2022-11-29T15:03:16.352Z,95.30
2022-11-29T15:05:46.703Z,95.50
2022-11-29T15:08:19.646Z,95.40
2022-11-29T15:10:52.985Z,95.70
2022-11-29T15:13:33.321Z,95.90
2022-11-29T15:16:38.580Z,95.70
2022-11-29T15:19:27.316Z,95.60
2022-11-29T15:22:07.954Z,95.90
2022-11-29T15:24:57.426Z,95.10
2022-11-29T15:27:25.792Z,95.30
2022-11-29T15:29:58.690Z,95.60
2022-11-29T15:32:32.719Z,95.60
2022-11-29T15:35:00.687Z,95.60
2022-11-29T15:37:37.797Z,95.80
2022-11-29T15:40:20.248Z,95.90
2022-11-29T15:43:02.722Z,95.80
2022-11-29T15:45:32.981Z,95.70
2022-11-29T15:48:30.646Z,95.90
2022-11-29T15:51:16.234Z,96.00
2022-11-29T15:54:11.302Z,96.00
2022-11-29T15:57:24.280Z,95.80
2022-11-29T16:00:01.740Z,96.00
2022-11-29T16:02:34.382Z,96.30
2022-11-29T16:05:16.632Z,96.10
2022-11-29T16:07:49.630Z,96.30
2022-11-29T16:10:23.338Z,96.40
2022-11-29T16:13:25.997Z,96.30
2022-11-29T16:16:15.110Z,96.40
2022-11-29T16:18:49.121Z,96.60
2022-11-29T16:21:33.020Z,96.50
2022-11-29T16:24:14.049Z,96.50
2022-11-29T16:26:45.108Z,96.60
2022-11-29T16:29:30.054Z,96.50
2022-11-29T16:31:58.046Z,96.40
2022-11-29T16:34:33.403Z,96.50
2022-11-29T16:37:01.276Z,96.60
2022-11-29T16:39:29.730Z,96.40
2022-11-29T16:42:39.461Z,96.50
2022-11-29T16:45:26.174Z,96.40
2022-11-29T16:48:00.851Z,96.40
2022-11-29T16:50:30.570Z,96.20
2022-11-29T16:53:35.998Z,96.40
2022-11-29T16:56:10.571Z,96.20
2022-11-29T16:58:43.062Z,96.30
2022-11-29T17:01:28.781Z,96.40
2022-11-29T17:04:01.333Z,96.10
2022-11-29T17:06:30.360Z,95.90
2022-11-29T17:08:59.685Z,95.90
2022-11-29T17:11:27.642Z,95.80
2022-11-29T17:13:55.029Z,96.00
2022-11-29T17:16:24.275Z,96.00
2022-11-29T17:18:53.185Z,96.00
2022-11-29T17:21:27.693Z,96.20
2022-11-29T17:23:55.301Z,95.80
2022-11-29T17:26:24.951Z,95.80
2022-11-29T17:28:53.373Z,95.70
2022-11-29T17:31:25.322Z,95.70
2022-11-29T17:33:54.935Z,95.90
2022-11-29T17:36:25.346Z,95.80
2022-11-29T17:38:53.265Z,95.80
2022-11-29T17:41:28.360Z,95.80
2022-11-29T17:44:01.182Z,95.80
2022-11-29T17:46:34.953Z,95.80
2022-11-29T17:49:05.626Z,95.80
2022-11-29T17:54:24.656Z,96.00
2022-11-29T17:56:52.226Z,95.80
2022-11-29T17:59:20.528Z,96.00
2022-11-29T18:01:48.488Z,95.90
2022-11-29T18:04:17.424Z,95.60
2022-11-29T18:06:50.424Z,95.70
2022-11-29T18:09:20.015Z,95.80
2022-11-29T18:11:50.133Z,95.80
2022-11-29T18:14:28.760Z,95.90
2022-11-29T18:16:56.398Z,95.70
2022-11-29T18:19:24.080Z,95.70
2022-11-29T18:21:52.017Z,95.30
2022-11-29T18:24:20.072Z,95.50
2022-11-29T18:26:48.310Z,95.30
2022-11-29T18:29:15.887Z,95.30
2022-11-29T18:31:45.625Z,95.40
2022-11-29T18:34:14.510Z,95.40
2022-11-29T18:36:52.185Z,95.60
2022-11-29T18:39:23.798Z,95.60
2022-11-29T18:41:52.018Z,95.30
2022-11-29T18:44:22.566Z,95.60
2022-11-29T18:46:49.865Z,95.50
2022-11-29T18:49:18.916Z,95.40
2022-11-29T18:51:50.421Z,95.30
2022-11-29T18:54:19.451Z,95.50
2022-11-29T18:56:50.594Z,95.50
2022-11-29T18:59:18.573Z,95.30
2022-11-29T19:01:48.678Z,95.40
2022-11-29T19:04:22.585Z,95.50
2022-11-29T19:06:50.495Z,95.60
2022-11-29T19:09:24.914Z,95.80
2022-11-29T19:11:52.333Z,95.40
2022-11-29T19:14:20.654Z,95.40
2022-11-29T19:16:49.618Z,95.30
2022-11-29T19:19:19.228Z,95.40
2022-11-29T19:21:47.105Z,95.30
2022-11-29T19:24:18.209Z,95.70
2022-11-29T19:26:47.982Z,95.40
2022-11-29T19:29:16.267Z,95.40
2022-11-29T19:31:44.289Z,95.50
2022-11-29T19:34:12.258Z,95.40
2022-11-29T19:36:45.046Z,95.40
2022-11-29T19:39:17.371Z,95.50
2022-11-29T19:41:47.019Z,95.60
2022-11-29T19:44:14.618Z,95.40
2022-11-29T19:46:49.134Z,95.60
2022-11-29T19:49:17.296Z,95.60
2022-11-29T19:51:45.134Z,95.60
2022-11-29T19:54:13.477Z,95.70
2022-11-29T19:56:41.859Z,95.60
2022-11-29T19:59:09.745Z,95.60
2022-11-29T20:01:42.792Z,96.10
2022-11-29T20:04:12.896Z,95.70
2022-11-29T20:06:40.977Z,95.70
2022-11-29T20:09:08.902Z,95.80
2022-11-29T20:11:36.850Z,95.70
2022-11-29T20:14:06.177Z,95.70
2022-11-29T20:16:34.237Z,95.60
2022-11-29T20:19:02.090Z,95.80
2022-11-29T20:21:32.303Z,95.70
2022-11-29T20:24:02.951Z,95.90
2022-11-29T20:26:31.866Z,96.00
2022-11-29T20:29:00.258Z,96.00
2022-11-29T20:31:28.416Z,95.70
2022-11-29T20:33:59.509Z,95.70
2022-11-29T20:37:07.596Z,95.80
2022-11-29T20:40:00.638Z,95.70
2022-11-29T20:42:56.896Z,95.70
2022-11-29T20:45:25.865Z,95.50
2022-11-29T20:48:13.550Z,95.60
2022-11-29T20:50:43.400Z,95.70
2022-11-29T20:53:29.421Z,95.90
2022-11-29T20:55:56.872Z,95.90
2022-11-29T20:58:26.719Z,95.80
2022-11-29T21:00:55.047Z,95.50
2022-11-29T21:03:23.771Z,95.70
2022-11-29T21:05:52.204Z,95.60
2022-11-29T21:08:22.248Z,95.60
2022-11-29T21:10:50.900Z,95.60
2022-11-29T21:13:20.673Z,95.70
2022-11-29T21:15:48.780Z,95.60
2022-11-29T21:18:27.611Z,95.60
2022-11-29T21:21:23.077Z,95.60
2022-11-29T21:23:55.802Z,96.00
2022-11-29T21:26:41.710Z,95.70
2022-11-29T21:29:20.134Z,95.60
2022-11-29T21:31:49.489Z,95.80
2022-11-29T21:34:17.012Z,95.80
2022-11-29T21:36:45.499Z,95.60
2022-11-29T21:39:16.555Z,95.60
2022-11-29T21:41:44.029Z,95.60
2022-11-29T21:44:11.401Z,95.80
2022-11-29T21:46:38.899Z,95.60
2022-11-29T21:49:06.583Z,95.70
2022-11-29T21:51:34.123Z,95.40
2022-11-29T21:54:02.328Z,95.60
2022-11-29T21:56:29.905Z,95.20
2022-11-29T21:58:57.296Z,95.40
2022-11-29T22:01:25.179Z,95.50
2022-11-29T22:03:54.204Z,95.50
2022-11-29T22:06:24.487Z,95.50
2022-11-29T22:08:52.353Z,95.40
2022-11-29T22:11:31.257Z,95.70
2022-11-29T22:14:16.160Z,95.90
2022-11-29T22:16:48.679Z,95.70
2022-11-29T22:19:21.364Z,95.60
2022-11-29T22:21:52.614Z,95.50
2022-11-29T22:24:22.898Z,95.60
2022-11-29T22:26:51.761Z,95.30
2022-11-29T22:29:19.704Z,95.30
2022-11-29T22:31:50.790Z,95.50
2022-11-29T22:34:18.386Z,95.60
2022-11-29T22:36:46.409Z,95.40
2022-11-29T22:39:13.856Z,95.40
2022-11-29T22:41:42.050Z,95.30
2022-11-29T22:44:09.939Z,95.40
2022-11-29T22:46:40.582Z,95.60
2022-11-29T22:49:08.564Z,95.30
2022-11-29T22:51:37.966Z,95.10
2022-11-29T22:54:11.838Z,95.20
2022-11-29T22:56:41.411Z,95.30
2022-11-29T22:59:09.465Z,95.10
2022-11-29T23:01:39.392Z,95.20
2022-11-29T23:04:08.687Z,95.30
2022-11-29T23:06:38.959Z,95.10
2022-11-29T23:09:12.280Z,95.20
2022-11-29T23:11:39.967Z,95.30
2022-11-29T23:14:07.360Z,95.20
2022-11-29T23:16:34.983Z,95.10
2022-11-29T23:19:02.603Z,95.30
2022-11-29T23:21:35.491Z,94.80
2022-11-29T23:24:03.356Z,95.10
2022-11-29T23:26:40.465Z,94.60
2022-11-29T23:29:16.218Z,94.80
2022-11-29T23:31:44.047Z,95.00
2022-11-29T23:34:11.769Z,94.90
2022-11-29T23:36:39.426Z,95.00
2022-11-29T23:39:07.460Z,95.00
2022-11-29T23:41:36.608Z,94.70
2022-11-29T23:44:07.330Z,94.50
2022-11-29T23:46:35.985Z,94.80
2022-11-29T23:49:03.526Z,94.60
2022-11-29T23:51:30.991Z,94.50
2022-11-29T23:53:58.372Z,94.60
2022-11-29T23:56:25.870Z,94.40
2022-11-29T23:58:53.320Z,94.60
